createdAt,value
2018-09-25T00:01:59.229Z,99.90
2018-09-25T00:04:33.313Z,99.90
2018-09-25T00:07:08.127Z,99.90
2018-09-25T00:09:42.162Z,99.90
2018-09-25T00:12:16.237Z,99.90
2018-09-25T00:14:50.286Z,99.90
2018-09-25T00:17:25.154Z,99.90
2018-09-25T00:19:59.255Z,99.90
2018-09-25T00:22:33.336Z,99.90
2018-09-25T00:25:07.487Z,99.90
2018-09-25T00:27:41.406Z,99.90
2018-09-25T00:30:15.456Z,99.90
2018-09-25T00:32:49.497Z,99.90
2018-09-25T00:35:23.448Z,99.90
2018-09-25T00:37:58.365Z,99.90
2018-09-25T00:40:32.463Z,99.90
2018-09-25T00:43:06.586Z,99.90
2018-09-25T00:45:40.543Z,99.90
2018-09-25T00:48:14.619Z,99.90
2018-09-25T00:50:48.612Z,99.90
2018-09-25T00:53:23.331Z,99.90
2018-09-25T00:55:57.421Z,99.90
2018-09-25T00:58:31.542Z,99.90
2018-09-25T01:01:05.682Z,99.90
2018-09-25T01:03:39.619Z,99.90
2018-09-25T01:06:13.715Z,99.90
2018-09-25T01:08:47.824Z,99.90
2018-09-25T01:11:22.693Z,99.90
2018-09-25T01:13:56.801Z,99.90
2018-09-25T01:16:30.891Z,99.90
2018-09-25T01:19:05.027Z,99.90
2018-09-25T01:21:39.073Z,99.90
2018-09-25T01:24:13.058Z,99.90
2018-09-25T01:26:47.945Z,99.90
2018-09-25T01:29:21.986Z,99.90
2018-09-25T01:31:56.886Z,99.90
2018-09-25T01:34:31.016Z,99.90
2018-09-25T01:37:05.114Z,99.90
2018-09-25T01:39:39.218Z,99.90
2018-09-25T01:42:13.328Z,99.90
2018-09-25T01:44:47.255Z,99.90
2018-09-25T01:47:21.371Z,99.90
2018-09-25T01:49:55.517Z,99.90
2018-09-25T01:52:29.599Z,99.90
2018-09-25T01:55:04.462Z,99.90
2018-09-25T01:57:38.646Z,99.90
2018-09-25T02:00:12.724Z,99.90
2018-09-25T02:02:46.841Z,99.90
2018-09-25T02:05:20.934Z,99.90
2018-09-25T02:07:54.987Z,99.90
2018-09-25T02:10:29.105Z,99.90
2018-09-25T02:13:03.234Z,99.90
2018-09-25T02:15:37.234Z,99.90
2018-09-25T02:18:11.345Z,99.90
2018-09-25T02:20:45.425Z,99.90
2018-09-25T02:23:19.544Z,99.90
2018-09-25T02:25:53.660Z,99.90
2018-09-25T02:28:27.804Z,99.90
2018-09-25T02:31:01.919Z,99.90
2018-09-25T02:33:36.758Z,99.90
2018-09-25T02:36:10.858Z,99.90
2018-09-25T02:38:44.955Z,99.90
2018-09-25T02:41:19.065Z,99.90
2018-09-25T02:43:53.172Z,99.90
2018-09-25T02:46:27.137Z,99.90
2018-09-25T02:49:01.098Z,99.90
2018-09-25T02:51:58.431Z,99.90
2018-09-25T02:55:02.078Z,99.90
2018-09-25T02:57:35.986Z,99.90
2018-09-25T03:00:10.066Z,99.90
2018-09-25T03:02:44.166Z,99.90
2018-09-25T03:05:18.218Z,99.90
2018-09-25T03:07:52.324Z,99.90
2018-09-25T03:10:26.389Z,99.90
2018-09-25T03:13:00.407Z,99.90
2018-09-25T03:15:34.520Z,99.90
2018-09-25T03:18:08.581Z,99.90
2018-09-25T03:20:42.645Z,99.90
2018-09-25T03:23:16.766Z,99.90
2018-09-25T03:25:50.835Z,99.90
2018-09-25T03:28:24.847Z,99.90
2018-09-25T03:30:58.884Z,99.90
2018-09-25T03:33:32.922Z,99.90
2018-09-25T03:36:06.913Z,99.90
2018-09-25T03:38:41.566Z,99.90
2018-09-25T03:41:15.468Z,99.90
2018-09-25T03:43:49.506Z,99.90
2018-09-25T03:46:24.311Z,99.90
2018-09-25T03:48:59.054Z,99.90
2018-09-25T03:51:33.670Z,99.90
2018-09-25T03:54:07.654Z,99.90
2018-09-25T03:56:41.685Z,99.90
2018-09-25T03:59:15.788Z,99.90
2018-09-25T04:01:49.913Z,99.90
2018-09-25T04:04:24.026Z,99.90
2018-09-25T04:06:58.886Z,99.90
2018-09-25T04:09:33.597Z,99.90
2018-09-25T04:12:07.522Z,99.90
2018-09-25T04:14:41.538Z,99.90
2018-09-25T04:17:15.418Z,99.90
2018-09-25T04:19:49.370Z,99.90
2018-09-25T04:22:23.423Z,99.90
2018-09-25T04:24:57.471Z,99.90
2018-09-25T04:27:31.563Z,99.90
2018-09-25T04:30:05.683Z,99.90
2018-09-25T04:32:40.497Z,99.90
2018-09-25T04:35:15.138Z,99.90
2018-09-25T04:37:49.117Z,99.90
2018-09-25T04:40:23.073Z,99.90
2018-09-25T04:42:57.152Z,99.90
2018-09-25T04:45:31.900Z,99.90
2018-09-25T04:48:05.937Z,99.90
2018-09-25T04:50:39.840Z,99.90
2018-09-25T04:53:14.002Z,99.90
2018-09-25T04:55:47.949Z,99.90
2018-09-25T04:58:22.448Z,99.90
2018-09-25T05:00:56.470Z,99.90
2018-09-25T05:03:30.522Z,99.90
2018-09-25T05:06:04.581Z,99.90
2018-09-25T05:08:38.599Z,99.90
2018-09-25T05:11:12.649Z,99.90
2018-09-25T05:13:48.891Z,99.90
2018-09-25T05:16:22.834Z,99.90
2018-09-25T05:18:56.819Z,99.90
2018-09-25T05:21:31.628Z,99.90
2018-09-25T05:24:06.304Z,99.90
2018-09-25T05:26:40.366Z,99.90
2018-09-25T05:29:14.453Z,99.90
2018-09-25T05:31:48.425Z,99.90
2018-09-25T05:34:22.497Z,99.90
2018-09-25T05:36:57.132Z,99.90
2018-09-25T05:39:31.038Z,99.90
2018-09-25T05:42:05.909Z,99.90
2018-09-25T05:44:39.979Z,99.90
2018-09-25T05:47:14.007Z,99.90
2018-09-25T05:49:48.834Z,99.90
2018-09-25T05:52:22.709Z,99.90
2018-09-25T05:54:56.739Z,99.90
2018-09-25T05:57:30.782Z,99.90
2018-09-25T06:00:04.868Z,99.90
2018-09-25T06:02:38.988Z,99.90
2018-09-25T06:05:13.016Z,99.90
2018-09-25T06:07:47.053Z,99.90
2018-09-25T06:10:21.124Z,99.90
2018-09-25T06:12:55.256Z,99.90
2018-09-25T06:15:29.345Z,99.90
2018-09-25T06:18:03.416Z,99.90
2018-09-25T06:20:37.395Z,99.90
2018-09-25T06:23:11.491Z,99.90
2018-09-25T06:25:45.595Z,99.90
2018-09-25T06:28:19.715Z,99.90
2018-09-25T06:30:53.720Z,99.90
2018-09-25T06:33:27.759Z,99.90
2018-09-25T06:36:01.685Z,99.90
2018-09-25T06:38:35.758Z,99.90
2018-09-25T06:41:09.896Z,99.90
2018-09-25T06:43:43.911Z,99.90
2018-09-25T06:46:17.926Z,99.90
2018-09-25T06:48:52.627Z,99.90
2018-09-25T06:51:26.536Z,99.90
2018-09-25T06:54:01.302Z,99.90
2018-09-25T06:56:36.161Z,99.90
2018-09-25T06:59:10.246Z,99.90
2018-09-25T07:01:44.325Z,99.90
2018-09-25T07:04:18.433Z,99.90
2018-09-25T07:06:54.245Z,99.90
2018-09-25T07:09:28.202Z,99.90
2018-09-25T07:12:02.251Z,99.90
2018-09-25T07:14:36.762Z,99.90
2018-09-25T07:17:11.673Z,99.90
2018-09-25T07:19:46.908Z,99.90
2018-09-25T07:22:22.474Z,99.90
2018-09-25T07:24:57.034Z,99.90
2018-09-25T07:27:32.014Z,99.90
2018-09-25T07:30:07.050Z,99.90
2018-09-25T07:32:42.624Z,99.90
2018-09-25T07:35:17.922Z,99.90
2018-09-25T07:37:52.377Z,99.90
2018-09-25T07:40:26.328Z,99.90
2018-09-25T07:43:00.436Z,99.90
2018-09-25T07:45:34.517Z,99.90
2018-09-25T07:48:08.734Z,99.90
2018-09-25T07:50:42.537Z,99.90
2018-09-25T07:53:16.648Z,99.90
2018-09-25T07:55:50.793Z,99.90
2018-09-25T07:58:25.593Z,99.90
2018-09-25T08:01:00.569Z,99.90
2018-09-25T08:03:34.747Z,99.90
2018-09-25T08:06:08.741Z,99.90
2018-09-25T08:08:42.854Z,99.90
2018-09-25T08:11:16.886Z,99.90
2018-09-25T08:13:50.837Z,99.90
2018-09-25T08:16:24.935Z,99.90
2018-09-25T08:18:58.979Z,99.90
2018-09-25T08:21:33.113Z,99.90
2018-09-25T08:24:07.142Z,99.90
2018-09-25T08:26:41.193Z,99.90
2018-09-25T08:29:15.303Z,99.90
2018-09-25T08:31:50.210Z,99.90
2018-09-25T08:34:24.934Z,99.90
2018-09-25T08:36:59.693Z,99.50
2018-09-25T08:39:33.874Z,99.50
2018-09-25T08:42:07.821Z,97.10
2018-09-25T08:44:41.884Z,96.40
2018-09-25T08:47:15.999Z,95.60
2018-09-25T08:49:50.074Z,96.00
2018-09-25T08:52:24.233Z,97.70
2018-09-25T08:54:59.077Z,98.60
2018-09-25T08:57:33.199Z,98.50
2018-09-25T09:00:07.182Z,94.20
2018-09-25T09:02:41.130Z,94.00
2018-09-25T09:05:15.109Z,93.30
2018-09-25T09:07:49.881Z,90.30
2018-09-25T09:10:23.974Z,90.20
2018-09-25T09:12:58.080Z,90.30
2018-09-25T09:15:32.190Z,89.60
2018-09-25T09:18:06.141Z,86.20
2018-09-25T09:20:40.127Z,85.30
2018-09-25T09:23:14.100Z,84.10
2018-09-25T09:25:48.231Z,83.00
2018-09-25T09:28:22.333Z,77.70
2018-09-25T09:30:56.413Z,71.90
2018-09-25T09:33:30.557Z,72.40
2018-09-25T09:36:04.618Z,67.30
2018-09-25T09:38:38.591Z,66.80
2018-09-25T09:41:12.810Z,67.10
2018-09-25T09:43:46.746Z,72.60
2018-09-25T09:46:21.448Z,64.20
2018-09-25T09:48:55.550Z,64.00
2018-09-25T09:51:29.693Z,59.00
2018-09-25T09:54:03.730Z,61.60
2018-09-25T09:56:37.801Z,66.30
2018-09-25T09:59:11.924Z,61.70
2018-09-25T10:01:45.835Z,61.50
2018-09-25T10:04:20.774Z,62.30
2018-09-25T10:06:55.000Z,62.30
2018-09-25T10:09:29.001Z,66.70
2018-09-25T10:12:03.903Z,61.30
2018-09-25T10:14:38.024Z,61.20
2018-09-25T10:17:12.097Z,59.20
2018-09-25T10:19:46.170Z,60.30
2018-09-25T10:22:20.973Z,65.20
2018-09-25T10:24:55.106Z,65.20
2018-09-25T10:27:29.254Z,60.70
2018-09-25T10:30:03.333Z,60.00
2018-09-25T10:32:37.302Z,59.10
2018-09-25T10:35:11.251Z,57.60
2018-09-25T10:37:46.050Z,59.70
2018-09-25T10:40:20.229Z,59.70
2018-09-25T10:42:55.031Z,54.70
2018-09-25T10:45:28.923Z,54.50
2018-09-25T10:48:03.720Z,52.10
2018-09-25T10:50:38.476Z,54.40
2018-09-25T10:53:12.592Z,54.40
2018-09-25T10:55:46.680Z,57.70
2018-09-25T10:58:20.778Z,61.90
2018-09-25T11:00:54.939Z,61.10
2018-09-25T11:03:29.750Z,54.20
2018-09-25T11:06:03.746Z,54.10
2018-09-25T11:08:37.745Z,52.50
2018-09-25T11:11:11.803Z,51.70
2018-09-25T11:13:45.942Z,51.10
2018-09-25T11:16:20.045Z,52.10
2018-09-25T11:18:54.140Z,52.80
2018-09-25T11:21:28.278Z,52.10
2018-09-25T11:24:02.374Z,52.70
2018-09-25T11:26:37.221Z,51.90
2018-09-25T11:29:12.054Z,55.10
2018-09-25T11:31:46.176Z,55.10
2018-09-25T11:34:21.290Z,52.70
2018-09-25T11:36:55.373Z,52.90
2018-09-25T11:39:30.238Z,50.70
2018-09-25T11:42:04.354Z,50.60
2018-09-25T11:44:38.434Z,50.90
2018-09-25T11:47:12.577Z,52.20
2018-09-25T11:49:47.440Z,49.60
2018-09-25T11:52:21.501Z,49.60
2018-09-25T11:54:56.256Z,53.30
2018-09-25T11:57:31.101Z,50.70
2018-09-25T12:00:05.211Z,50.70
2018-09-25T12:02:39.300Z,49.10
2018-09-25T12:05:13.419Z,51.80
2018-09-25T12:07:47.503Z,49.80
2018-09-25T12:10:21.615Z,48.00
2018-09-25T12:12:55.669Z,48.70
2018-09-25T12:15:29.771Z,49.50
2018-09-25T12:18:03.865Z,50.20
2018-09-25T12:20:38.082Z,50.50
2018-09-25T12:23:11.996Z,50.40
2018-09-25T12:25:46.187Z,50.80
2018-09-25T12:28:20.301Z,50.70
2018-09-25T12:30:54.438Z,51.30
2018-09-25T12:33:28.462Z,52.30
2018-09-25T12:36:02.590Z,52.50
2018-09-25T12:38:36.689Z,52.40
2018-09-25T12:41:10.818Z,52.70
2018-09-25T12:43:45.051Z,53.20
2018-09-25T12:46:19.322Z,53.00
2018-09-25T12:48:53.501Z,52.30
2018-09-25T12:51:27.609Z,51.70
2018-09-25T12:54:01.642Z,51.50
2018-09-25T12:56:35.801Z,50.90
2018-09-25T12:59:09.828Z,52.20
2018-09-25T13:01:43.926Z,53.00
2018-09-25T13:04:17.996Z,53.50
2018-09-25T13:06:51.968Z,54.20
2018-09-25T13:09:26.883Z,53.90
2018-09-25T13:12:01.005Z,53.90
2018-09-25T13:14:35.012Z,53.10
2018-09-25T13:17:09.122Z,52.60
2018-09-25T13:19:43.294Z,52.10
2018-09-25T13:22:17.691Z,51.90
2018-09-25T13:24:52.502Z,51.00
2018-09-25T13:27:26.864Z,50.80
2018-09-25T13:30:00.896Z,50.20
2018-09-25T13:32:35.108Z,50.10
2018-09-25T13:35:09.017Z,50.90
2018-09-25T13:37:43.076Z,50.40
2018-09-25T13:40:17.388Z,50.30
2018-09-25T13:42:51.735Z,49.70
2018-09-25T13:45:25.962Z,50.50
2018-09-25T13:48:00.226Z,51.00
2018-09-25T13:50:34.355Z,51.40
2018-09-25T13:53:08.426Z,51.30
2018-09-25T13:55:42.549Z,51.20
2018-09-25T13:58:16.617Z,50.50
2018-09-25T14:00:50.926Z,50.20
2018-09-25T14:03:25.976Z,51.10
2018-09-25T14:06:00.032Z,51.10
2018-09-25T14:08:34.064Z,50.10
2018-09-25T14:11:08.102Z,50.20
2018-09-25T14:13:43.273Z,50.20
2018-09-25T14:16:18.359Z,49.50
2018-09-25T14:18:52.639Z,49.50
2018-09-25T14:21:27.605Z,48.80
2018-09-25T14:24:01.813Z,48.80
2018-09-25T14:26:36.714Z,47.80
2018-09-25T14:29:11.715Z,49.00
2018-09-25T14:31:45.832Z,48.90
2018-09-25T14:34:20.221Z,49.30
2018-09-25T14:36:55.376Z,48.30
2018-09-25T14:39:34.687Z,48.20
2018-09-25T14:42:08.765Z,48.50
2018-09-25T14:44:42.883Z,48.50
2018-09-25T14:47:17.031Z,49.50
2018-09-25T14:49:51.219Z,50.90
2018-09-25T14:52:25.225Z,50.80
2018-09-25T14:54:59.335Z,48.70
2018-09-25T14:57:33.520Z,46.80
2018-09-25T15:00:07.666Z,47.40
2018-09-25T15:02:43.727Z,46.70
2018-09-25T15:05:17.817Z,46.30
2018-09-25T15:07:52.665Z,46.60
2018-09-25T15:10:26.880Z,46.60
2018-09-25T15:13:01.657Z,47.40
2018-09-25T15:15:36.734Z,47.40
2018-09-25T15:18:10.832Z,46.50
2018-09-25T15:20:44.863Z,47.00
2018-09-25T15:23:18.935Z,45.40
2018-09-25T15:25:53.005Z,44.90
2018-09-25T15:28:27.892Z,44.90
2018-09-25T15:31:02.018Z,44.80
2018-09-25T15:33:36.089Z,44.80
2018-09-25T15:36:10.121Z,45.00
2018-09-25T15:38:44.085Z,45.30
2018-09-25T15:41:18.123Z,45.60
2018-09-25T15:43:52.220Z,46.80
2018-09-25T15:46:26.678Z,45.80
2018-09-25T15:49:00.666Z,47.40
2018-09-25T15:51:34.751Z,47.20
2018-09-25T15:54:08.811Z,47.70
2018-09-25T15:56:42.857Z,47.80
2018-09-25T15:59:17.015Z,46.40
2018-09-25T16:01:51.290Z,47.80
2018-09-25T16:04:25.289Z,49.40
2018-09-25T16:06:59.357Z,48.00
2018-09-25T16:09:33.435Z,49.00
2018-09-25T16:12:07.889Z,50.60
2018-09-25T16:14:44.774Z,45.60
2018-09-25T16:17:19.048Z,45.60
2018-09-25T16:19:53.001Z,43.90
2018-09-25T16:22:27.137Z,42.90
2018-09-25T16:25:01.116Z,41.30
2018-09-25T16:27:37.692Z,40.80
2018-09-25T16:30:12.418Z,41.00
2018-09-25T16:32:46.534Z,40.90
2018-09-25T16:35:20.647Z,43.40
2018-09-25T16:37:54.816Z,41.70
2018-09-25T16:40:28.915Z,42.50
2018-09-25T16:43:03.097Z,44.20
2018-09-25T16:45:37.355Z,46.90
2018-09-25T16:48:11.454Z,46.10
2018-09-25T16:50:45.560Z,46.70
2018-09-25T16:53:19.710Z,47.20
2018-09-25T16:55:53.846Z,48.00
2018-09-25T16:58:27.976Z,50.40
2018-09-25T17:01:01.904Z,50.40
2018-09-25T17:03:35.995Z,50.50
2018-09-25T17:06:10.834Z,52.50
2018-09-25T17:08:45.002Z,52.60
2018-09-25T17:11:19.142Z,55.30
2018-09-25T17:13:53.290Z,56.00
2018-09-25T17:16:27.629Z,56.60
2018-09-25T17:19:01.802Z,58.10
2018-09-25T17:21:35.804Z,59.00
2018-09-25T17:24:09.988Z,59.40
2018-09-25T17:26:44.184Z,62.70
2018-09-25T17:29:18.275Z,64.90
2018-09-25T17:31:52.333Z,62.00
2018-09-25T17:34:26.422Z,63.40
2018-09-25T17:37:04.392Z,64.70
2018-09-25T17:39:38.497Z,65.70
2018-09-25T17:42:13.432Z,61.70
2018-09-25T17:44:47.511Z,60.50
2018-09-25T17:47:21.554Z,64.60
2018-09-25T17:49:55.669Z,62.10
2018-09-25T17:52:29.613Z,66.30
2018-09-25T17:55:03.685Z,67.80
2018-09-25T17:57:37.814Z,67.20
2018-09-25T18:00:12.552Z,71.40
2018-09-25T18:02:46.656Z,71.30
2018-09-25T18:05:20.781Z,71.80
2018-09-25T18:07:55.693Z,70.80
2018-09-25T18:10:29.898Z,70.80
2018-09-25T18:13:03.897Z,75.40
2018-09-25T18:15:38.043Z,76.50
2018-09-25T18:18:12.031Z,73.30
2018-09-25T18:20:46.163Z,75.50
2018-09-25T18:23:20.244Z,77.50
2018-09-25T18:25:54.270Z,78.20
2018-09-25T18:28:28.414Z,81.20
2018-09-25T18:31:02.411Z,82.10
2018-09-25T18:33:37.344Z,82.50
2018-09-25T18:36:12.177Z,80.90
2018-09-25T18:38:46.271Z,80.70
2018-09-25T18:41:20.385Z,82.10
2018-09-25T18:43:54.307Z,82.60
2018-09-25T18:46:28.490Z,83.30
2018-09-25T18:49:03.264Z,85.80
2018-09-25T18:51:37.294Z,85.70
2018-09-25T18:54:11.373Z,86.50
2018-09-25T18:56:45.474Z,87.30
2018-09-25T18:59:19.681Z,86.70
2018-09-25T19:01:53.752Z,87.10
2018-09-25T19:04:27.850Z,87.20
2018-09-25T19:07:01.849Z,88.70
2018-09-25T19:09:35.753Z,88.40
2018-09-25T19:12:09.898Z,89.30
2018-09-25T19:14:43.956Z,90.60
2018-09-25T19:17:18.017Z,90.90
2018-09-25T19:19:52.148Z,91.60
2018-09-25T19:22:26.126Z,91.80
2018-09-25T19:25:00.226Z,92.20
2018-09-25T19:27:34.482Z,93.50
2018-09-25T19:30:08.567Z,92.50
2018-09-25T19:32:42.732Z,93.00
2018-09-25T19:35:17.345Z,93.40
2018-09-25T19:37:51.398Z,92.40
2018-09-25T19:40:25.506Z,92.30
2018-09-25T19:42:59.714Z,92.60
2018-09-25T19:45:33.862Z,92.80
2018-09-25T19:48:08.947Z,93.30
2018-09-25T19:50:43.326Z,93.20
2018-09-25T19:53:17.297Z,93.20
2018-09-25T19:55:51.420Z,92.30
2018-09-25T19:58:26.405Z,93.70
2018-09-25T20:01:00.495Z,93.70
2018-09-25T20:03:34.601Z,94.00
2018-09-25T20:06:08.919Z,94.20
2018-09-25T20:08:43.075Z,95.50
2018-09-25T20:11:17.261Z,95.00
2018-09-25T20:13:51.545Z,94.90
2018-09-25T20:16:25.606Z,94.70
2018-09-25T20:18:59.947Z,95.40
2018-09-25T20:21:33.998Z,95.10
2018-09-25T20:24:08.146Z,94.80
2018-09-25T20:26:42.136Z,95.40
2018-09-25T20:29:16.370Z,96.00
2018-09-25T20:31:50.469Z,96.00
2018-09-25T20:34:24.561Z,95.60
2018-09-25T20:36:58.726Z,96.20
2018-09-25T20:39:32.886Z,96.20
2018-09-25T20:42:07.007Z,96.30
2018-09-25T20:44:41.114Z,97.00
2018-09-25T20:47:15.046Z,97.50
2018-09-25T20:49:49.131Z,97.40
2018-09-25T20:52:23.056Z,97.80
2018-09-25T20:54:57.050Z,98.20
2018-09-25T20:57:30.996Z,98.60
2018-09-25T21:00:05.115Z,98.60
2018-09-25T21:02:39.283Z,98.80
2018-09-25T21:05:13.317Z,99.80
2018-09-25T21:07:47.354Z,99.80
2018-09-25T21:10:21.366Z,99.90
2018-09-25T21:12:55.278Z,99.90
2018-09-25T21:15:29.307Z,99.90
2018-09-25T21:18:04.201Z,99.90
2018-09-25T21:20:38.278Z,99.90
2018-09-25T21:23:12.336Z,99.90
2018-09-25T21:25:46.317Z,99.90
2018-09-25T21:28:21.151Z,99.90
2018-09-25T21:30:55.291Z,99.90
2018-09-25T21:33:29.420Z,99.90
2018-09-25T21:36:03.498Z,99.90
2018-09-25T21:38:37.572Z,99.90
2018-09-25T21:41:11.717Z,99.90
2018-09-25T21:43:45.849Z,99.90
2018-09-25T21:46:20.577Z,99.90
2018-09-25T21:48:54.730Z,99.90
2018-09-25T21:51:28.888Z,99.90
2018-09-25T21:54:02.803Z,99.90
2018-09-25T21:56:36.846Z,99.90
2018-09-25T21:59:10.806Z,99.90
2018-09-25T22:01:44.914Z,99.90
2018-09-25T22:04:18.939Z,99.90
2018-09-25T22:06:53.077Z,99.90
2018-09-25T22:09:27.092Z,99.90
2018-09-25T22:12:01.230Z,99.90
2018-09-25T22:14:35.389Z,99.90
2018-09-25T22:17:10.254Z,99.90
2018-09-25T22:19:44.338Z,99.90
2018-09-25T22:22:18.429Z,99.90
2018-09-25T22:24:52.588Z,99.90
2018-09-25T22:27:26.681Z,99.90
2018-09-25T22:30:00.826Z,99.90
2018-09-25T22:32:35.679Z,99.90
2018-09-25T22:35:09.764Z,99.90
2018-09-25T22:37:43.837Z,99.90
2018-09-25T22:40:17.885Z,99.90
2018-09-25T22:42:52.728Z,99.90
2018-09-25T22:45:26.899Z,99.90
2018-09-25T22:48:01.021Z,99.90
2018-09-25T22:50:35.061Z,99.90
2018-09-25T22:53:09.084Z,99.90
2018-09-25T22:55:43.141Z,99.90
2018-09-25T22:58:17.211Z,99.90
2018-09-25T23:00:51.277Z,99.90
2018-09-25T23:03:25.386Z,99.90
2018-09-25T23:06:00.237Z,99.90
2018-09-25T23:08:34.370Z,99.90
2018-09-25T23:11:08.427Z,99.90
2018-09-25T23:13:42.601Z,99.90
2018-09-25T23:16:16.485Z,99.90
2018-09-25T23:18:50.583Z,99.90
2018-09-25T23:21:24.674Z,99.90
2018-09-25T23:23:58.762Z,99.90
2018-09-25T23:26:32.812Z,99.90
2018-09-25T23:29:07.690Z,99.90
2018-09-25T23:31:41.754Z,99.90
2018-09-25T23:34:15.876Z,99.90
2018-09-25T23:36:50.795Z,99.90
2018-09-25T23:39:24.781Z,99.90
2018-09-25T23:41:58.893Z,99.90
2018-09-25T23:44:32.933Z,99.90
2018-09-25T23:47:07.010Z,99.90
2018-09-25T23:49:41.051Z,99.90
2018-09-25T23:52:15.082Z,99.90
2018-09-25T23:54:49.202Z,99.90
2018-09-25T23:57:23.409Z,99.90
2018-09-25T23:59:57.564Z,99.90
